sensor_id;sensor_type;location;lat;lon;timestamp;temperature;humidity
59660;DHT22;45534;52.690;6.268;2022-12-07T00:01:09;4.30;99.90
59660;DHT22;45534;52.690;6.268;2022-12-07T00:03:36;4.30;99.90
59660;DHT22;45534;52.690;6.268;2022-12-07T00:06:03;4.20;99.90
59660;DHT22;45534;52.690;6.268;2022-12-07T00:08:31;4.30;99.90
59660;DHT22;45534;52.690;6.268;2022-12-07T00:11:11;4.20;99.90
59660;DHT22;45534;52.690;6.268;2022-12-07T00:13:37;4.30;99.90
59660;DHT22;45534;52.690;6.268;2022-12-07T00:16:08;4.20;99.90
59660;DHT22;45534;52.690;6.268;2022-12-07T00:18:35;4.30;99.90
59660;DHT22;45534;52.690;6.268;2022-12-07T00:21:12;4.30;99.90
59660;DHT22;45534;52.690;6.268;2022-12-07T00:23:39;4.30;99.90
59660;DHT22;45534;52.690;6.268;2022-12-07T00:26:10;4.30;99.90
59660;DHT22;45534;52.690;6.268;2022-12-07T00:28:37;4.30;99.90
59660;DHT22;45534;52.690;6.268;2022-12-07T00:31:11;4.30;99.90
59660;DHT22;45534;52.690;6.268;2022-12-07T00:33:37;4.30;99.90
59660;DHT22;45534;52.690;6.268;2022-12-07T00:36:06;4.30;99.90
59660;DHT22;45534;52.690;6.268;2022-12-07T00:38:34;4.30;99.90
59660;DHT22;45534;52.690;6.268;2022-12-07T00:41:10;4.30;99.90
59660;DHT22;45534;52.690;6.268;2022-12-07T00:43:36;4.30;99.90
59660;DHT22;45534;52.690;6.268;2022-12-07T00:46:02;4.20;99.90
59660;DHT22;45534;52.690;6.268;2022-12-07T00:48:27;4.20;99.90
59660;DHT22;45534;52.690;6.268;2022-12-07T00:50:53;4.20;99.90
59660;DHT22;45534;52.690;6.268;2022-12-07T00:53:19;4.20;99.90
59660;DHT22;45534;52.690;6.268;2022-12-07T00:55:45;4.10;99.90
59660;DHT22;45534;52.690;6.268;2022-12-07T00:58:11;4.10;99.90
59660;DHT22;45534;52.690;6.268;2022-12-07T01:00:39;4.10;99.90
59660;DHT22;45534;52.690;6.268;2022-12-07T01:03:06;4.10;99.90
59660;DHT22;45534;52.690;6.268;2022-12-07T01:05:32;4.10;99.90
59660;DHT22;45534;52.690;6.268;2022-12-07T01:07:58;4.10;99.90
59660;DHT22;45534;52.690;6.268;2022-12-07T01:10:24;4.10;99.90
59660;DHT22;45534;52.690;6.268;2022-12-07T01:12:49;4.00;99.90
59660;DHT22;45534;52.690;6.268;2022-12-07T01:15:15;4.00;99.90
59660;DHT22;45534;52.690;6.268;2022-12-07T01:17:41;4.00;99.90
59660;DHT22;45534;52.690;6.268;2022-12-07T01:20:07;4.00;99.90
59660;DHT22;45534;52.690;6.268;2022-12-07T01:22:37;4.00;99.90
59660;DHT22;45534;52.690;6.268;2022-12-07T01:25:04;4.00;99.90
59660;DHT22;45534;52.690;6.268;2022-12-07T01:27:30;4.00;99.90
59660;DHT22;45534;52.690;6.268;2022-12-07T01:29:56;4.00;99.90
59660;DHT22;45534;52.690;6.268;2022-12-07T01:32:21;4.00;99.90
59660;DHT22;45534;52.690;6.268;2022-12-07T01:34:50;4.00;99.90
59660;DHT22;45534;52.690;6.268;2022-12-07T01:37:15;4.00;99.90
59660;DHT22;45534;52.690;6.268;2022-12-07T01:39:41;4.00;99.90
59660;DHT22;45534;52.690;6.268;2022-12-07T01:42:11;3.90;99.90
59660;DHT22;45534;52.690;6.268;2022-12-07T01:47:41;3.90;99.90
59660;DHT22;45534;52.690;6.268;2022-12-07T01:50:07;3.80;99.90
59660;DHT22;45534;52.690;6.268;2022-12-07T01:52:33;3.80;99.90
59660;DHT22;45534;52.690;6.268;2022-12-07T01:55:04;3.70;99.90
59660;DHT22;45534;52.690;6.268;2022-12-07T01:57:33;3.70;99.90
59660;DHT22;45534;52.690;6.268;2022-12-07T02:00:00;3.70;99.90
59660;DHT22;45534;52.690;6.268;2022-12-07T02:02:30;3.70;99.90
59660;DHT22;45534;52.690;6.268;2022-12-07T02:04:59;3.70;99.90
59660;DHT22;45534;52.690;6.268;2022-12-07T02:07:26;3.70;99.90
59660;DHT22;45534;52.690;6.268;2022-12-07T02:09:53;3.70;99.90
59660;DHT22;45534;52.690;6.268;2022-12-07T02:12:20;3.70;99.90
59660;DHT22;45534;52.690;6.268;2022-12-07T02:14:46;3.70;99.90
59660;DHT22;45534;52.690;6.268;2022-12-07T02:17:28;3.70;99.90
59660;DHT22;45534;52.690;6.268;2022-12-07T02:20:04;3.70;99.90
59660;DHT22;45534;52.690;6.268;2022-12-07T02:23:00;3.60;99.90
59660;DHT22;45534;52.690;6.268;2022-12-07T02:28:09;3.60;99.90
59660;DHT22;45534;52.690;6.268;2022-12-07T02:30:43;3.60;99.90
59660;DHT22;45534;52.690;6.268;2022-12-07T02:35:55;3.70;99.90
59660;DHT22;45534;52.690;6.268;2022-12-07T02:43:28;3.70;99.90
59660;DHT22;45534;52.690;6.268;2022-12-07T02:46:06;3.80;99.90
59660;DHT22;45534;52.690;6.268;2022-12-07T02:48:34;3.80;99.90
59660;DHT22;45534;52.690;6.268;2022-12-07T02:51:01;3.80;99.90
59660;DHT22;45534;52.690;6.268;2022-12-07T02:56:01;3.90;99.90
59660;DHT22;45534;52.690;6.268;2022-12-07T02:58:54;3.90;99.90
59660;DHT22;45534;52.690;6.268;2022-12-07T03:04:42;3.90;99.90
59660;DHT22;45534;52.690;6.268;2022-12-07T03:12:31;4.10;99.90
59660;DHT22;45534;52.690;6.268;2022-12-07T03:15:04;4.20;99.90
59660;DHT22;45534;52.690;6.268;2022-12-07T03:17:33;4.20;99.90
59660;DHT22;45534;52.690;6.268;2022-12-07T03:20:03;4.20;99.90
59660;DHT22;45534;52.690;6.268;2022-12-07T03:22:31;4.30;99.90
59660;DHT22;45534;52.690;6.268;2022-12-07T03:25:03;4.30;99.90
59660;DHT22;45534;52.690;6.268;2022-12-07T03:27:54;4.40;99.90
59660;DHT22;45534;52.690;6.268;2022-12-07T03:30:21;4.40;99.90
59660;DHT22;45534;52.690;6.268;2022-12-07T03:33:04;4.40;99.90
59660;DHT22;45534;52.690;6.268;2022-12-07T03:35:45;4.30;99.90
59660;DHT22;45534;52.690;6.268;2022-12-07T03:38:27;4.30;99.90
59660;DHT22;45534;52.690;6.268;2022-12-07T03:41:21;4.20;99.90
59660;DHT22;45534;52.690;6.268;2022-12-07T03:43:47;4.20;99.90
59660;DHT22;45534;52.690;6.268;2022-12-07T03:51:36;4.10;99.90
59660;DHT22;45534;52.690;6.268;2022-12-07T03:54:11;4.10;99.90
59660;DHT22;45534;52.690;6.268;2022-12-07T03:56:39;4.10;99.90
59660;DHT22;45534;52.690;6.268;2022-12-07T03:59:06;4.10;99.90
59660;DHT22;45534;52.690;6.268;2022-12-07T04:01:32;4.10;99.90
59660;DHT22;45534;52.690;6.268;2022-12-07T04:03:58;4.10;99.90
59660;DHT22;45534;52.690;6.268;2022-12-07T04:06:23;4.10;99.90
59660;DHT22;45534;52.690;6.268;2022-12-07T04:08:49;4.10;99.90
59660;DHT22;45534;52.690;6.268;2022-12-07T04:11:15;4.10;99.90
59660;DHT22;45534;52.690;6.268;2022-12-07T04:13:40;4.00;99.90
59660;DHT22;45534;52.690;6.268;2022-12-07T04:16:25;4.00;99.90
59660;DHT22;45534;52.690;6.268;2022-12-07T04:18:50;3.90;99.90
59660;DHT22;45534;52.690;6.268;2022-12-07T04:21:16;3.90;99.90
59660;DHT22;45534;52.690;6.268;2022-12-07T04:23:41;3.90;99.90
59660;DHT22;45534;52.690;6.268;2022-12-07T04:26:07;3.80;99.90
59660;DHT22;45534;52.690;6.268;2022-12-07T04:28:33;3.80;99.90
59660;DHT22;45534;52.690;6.268;2022-12-07T04:30:58;3.70;99.90
59660;DHT22;45534;52.690;6.268;2022-12-07T04:33:24;3.70;99.90
59660;DHT22;45534;52.690;6.268;2022-12-07T04:35:50;3.70;99.90
59660;DHT22;45534;52.690;6.268;2022-12-07T04:38:15;3.60;99.90
59660;DHT22;45534;52.690;6.268;2022-12-07T04:40:41;3.60;99.90
59660;DHT22;45534;52.690;6.268;2022-12-07T04:43:06;3.50;99.90
59660;DHT22;45534;52.690;6.268;2022-12-07T04:45:32;3.50;99.90
59660;DHT22;45534;52.690;6.268;2022-12-07T04:47:58;3.50;99.90
59660;DHT22;45534;52.690;6.268;2022-12-07T04:50:23;3.40;99.90
59660;DHT22;45534;52.690;6.268;2022-12-07T04:52:49;3.40;99.90
59660;DHT22;45534;52.690;6.268;2022-12-07T04:55:15;3.40;99.90
59660;DHT22;45534;52.690;6.268;2022-12-07T04:57:40;3.50;99.90
59660;DHT22;45534;52.690;6.268;2022-12-07T05:00:06;3.50;99.90
59660;DHT22;45534;52.690;6.268;2022-12-07T05:02:32;3.50;99.90
59660;DHT22;45534;52.690;6.268;2022-12-07T05:04:58;3.50;99.90
59660;DHT22;45534;52.690;6.268;2022-12-07T05:07:24;3.50;99.90
59660;DHT22;45534;52.690;6.268;2022-12-07T05:09:49;3.50;99.90
59660;DHT22;45534;52.690;6.268;2022-12-07T05:12:15;3.50;99.90
59660;DHT22;45534;52.690;6.268;2022-12-07T05:14:40;3.50;99.90
59660;DHT22;45534;52.690;6.268;2022-12-07T05:17:06;3.50;99.90
59660;DHT22;45534;52.690;6.268;2022-12-07T05:19:32;3.50;99.90
59660;DHT22;45534;52.690;6.268;2022-12-07T05:21:57;3.50;99.90
59660;DHT22;45534;52.690;6.268;2022-12-07T05:24:23;3.50;99.90
59660;DHT22;45534;52.690;6.268;2022-12-07T05:26:49;3.40;99.90
59660;DHT22;45534;52.690;6.268;2022-12-07T05:29:16;3.40;99.90
59660;DHT22;45534;52.690;6.268;2022-12-07T05:31:42;3.40;99.90
59660;DHT22;45534;52.690;6.268;2022-12-07T05:34:08;3.40;99.90
59660;DHT22;45534;52.690;6.268;2022-12-07T05:36:34;3.40;99.90
59660;DHT22;45534;52.690;6.268;2022-12-07T05:39:00;3.30;99.90
59660;DHT22;45534;52.690;6.268;2022-12-07T05:41:26;3.30;99.90
59660;DHT22;45534;52.690;6.268;2022-12-07T05:44:11;3.30;99.90
59660;DHT22;45534;52.690;6.268;2022-12-07T05:46:36;3.30;99.90
59660;DHT22;45534;52.690;6.268;2022-12-07T05:49:02;3.30;99.90
59660;DHT22;45534;52.690;6.268;2022-12-07T05:51:28;3.20;99.90
59660;DHT22;45534;52.690;6.268;2022-12-07T05:53:54;3.30;99.90
59660;DHT22;45534;52.690;6.268;2022-12-07T05:56:19;3.20;99.90
59660;DHT22;45534;52.690;6.268;2022-12-07T05:58:45;3.20;99.90
59660;DHT22;45534;52.690;6.268;2022-12-07T06:01:29;3.20;99.90
59660;DHT22;45534;52.690;6.268;2022-12-07T06:03:55;3.20;99.90
59660;DHT22;45534;52.690;6.268;2022-12-07T06:06:21;3.20;99.90
59660;DHT22;45534;52.690;6.268;2022-12-07T06:08:46;3.30;99.90
59660;DHT22;45534;52.690;6.268;2022-12-07T06:11:12;3.30;99.90
59660;DHT22;45534;52.690;6.268;2022-12-07T06:13:56;3.30;99.90
59660;DHT22;45534;52.690;6.268;2022-12-07T06:16:22;3.50;99.90
59660;DHT22;45534;52.690;6.268;2022-12-07T06:18:48;3.50;99.90
59660;DHT22;45534;52.690;6.268;2022-12-07T06:21:13;3.60;99.90
59660;DHT22;45534;52.690;6.268;2022-12-07T06:23:39;3.70;99.90
59660;DHT22;45534;52.690;6.268;2022-12-07T06:26:05;3.80;99.90
59660;DHT22;45534;52.690;6.268;2022-12-07T06:28:31;3.80;99.90
59660;DHT22;45534;52.690;6.268;2022-12-07T06:30:58;3.90;99.90
59660;DHT22;45534;52.690;6.268;2022-12-07T06:33:24;3.80;99.90
59660;DHT22;45534;52.690;6.268;2022-12-07T06:35:50;3.90;99.90
59660;DHT22;45534;52.690;6.268;2022-12-07T06:38:16;3.90;99.90
59660;DHT22;45534;52.690;6.268;2022-12-07T06:40:42;3.90;99.90
59660;DHT22;45534;52.690;6.268;2022-12-07T06:43:07;3.90;99.90
59660;DHT22;45534;52.690;6.268;2022-12-07T06:45:33;3.90;99.90
59660;DHT22;45534;52.690;6.268;2022-12-07T06:47:59;3.80;99.90
59660;DHT22;45534;52.690;6.268;2022-12-07T06:50:24;3.80;99.90
59660;DHT22;45534;52.690;6.268;2022-12-07T06:52:51;3.70;99.90
59660;DHT22;45534;52.690;6.268;2022-12-07T06:55:17;3.70;99.90
59660;DHT22;45534;52.690;6.268;2022-12-07T06:57:42;3.60;99.90
59660;DHT22;45534;52.690;6.268;2022-12-07T07:00:09;3.70;99.90
59660;DHT22;45534;52.690;6.268;2022-12-07T07:02:34;3.60;99.90
59660;DHT22;45534;52.690;6.268;2022-12-07T07:05:00;3.60;99.90
59660;DHT22;45534;52.690;6.268;2022-12-07T07:07:26;3.60;99.90
59660;DHT22;45534;52.690;6.268;2022-12-07T07:09:51;3.50;99.90
59660;DHT22;45534;52.690;6.268;2022-12-07T07:12:17;3.50;99.90
59660;DHT22;45534;52.690;6.268;2022-12-07T07:14:43;3.50;99.90
59660;DHT22;45534;52.690;6.268;2022-12-07T07:17:08;3.50;99.90
59660;DHT22;45534;52.690;6.268;2022-12-07T07:19:34;3.50;99.90
59660;DHT22;45534;52.690;6.268;2022-12-07T07:22:00;3.40;99.90
59660;DHT22;45534;52.690;6.268;2022-12-07T07:24:25;3.40;99.90
59660;DHT22;45534;52.690;6.268;2022-12-07T07:26:51;3.40;99.90
59660;DHT22;45534;52.690;6.268;2022-12-07T07:29:17;3.30;99.90
59660;DHT22;45534;52.690;6.268;2022-12-07T07:31:42;3.30;99.90
59660;DHT22;45534;52.690;6.268;2022-12-07T07:34:08;3.20;99.90
59660;DHT22;45534;52.690;6.268;2022-12-07T07:36:34;3.20;99.90
59660;DHT22;45534;52.690;6.268;2022-12-07T07:38:59;3.10;99.90
59660;DHT22;45534;52.690;6.268;2022-12-07T07:41:25;3.10;99.90
59660;DHT22;45534;52.690;6.268;2022-12-07T07:43:51;3.00;99.90
59660;DHT22;45534;52.690;6.268;2022-12-07T07:46:16;3.00;99.90
59660;DHT22;45534;52.690;6.268;2022-12-07T07:48:42;2.90;99.90
59660;DHT22;45534;52.690;6.268;2022-12-07T07:51:08;2.90;99.90
59660;DHT22;45534;52.690;6.268;2022-12-07T07:53:34;2.90;99.90
59660;DHT22;45534;52.690;6.268;2022-12-07T07:55:59;2.90;99.90
59660;DHT22;45534;52.690;6.268;2022-12-07T07:58:25;2.80;99.90
59660;DHT22;45534;52.690;6.268;2022-12-07T08:00:51;2.90;99.90
59660;DHT22;45534;52.690;6.268;2022-12-07T08:03:17;2.90;99.90
59660;DHT22;45534;52.690;6.268;2022-12-07T08:05:42;2.90;99.90
59660;DHT22;45534;52.690;6.268;2022-12-07T08:08:08;3.00;99.90
59660;DHT22;45534;52.690;6.268;2022-12-07T08:10:34;3.00;99.90
59660;DHT22;45534;52.690;6.268;2022-12-07T08:13:00;3.10;99.90
59660;DHT22;45534;52.690;6.268;2022-12-07T08:15:43;3.00;99.90
59660;DHT22;45534;52.690;6.268;2022-12-07T08:18:10;3.00;99.90
59660;DHT22;45534;52.690;6.268;2022-12-07T08:20:37;3.00;99.90
59660;DHT22;45534;52.690;6.268;2022-12-07T08:23:04;3.00;99.90
59660;DHT22;45534;52.690;6.268;2022-12-07T08:25:31;3.00;99.90
59660;DHT22;45534;52.690;6.268;2022-12-07T08:27:56;3.10;99.90
59660;DHT22;45534;52.690;6.268;2022-12-07T08:30:26;3.10;99.90
59660;DHT22;45534;52.690;6.268;2022-12-07T08:32:51;3.10;99.90
59660;DHT22;45534;52.690;6.268;2022-12-07T08:35:17;3.20;99.90
59660;DHT22;45534;52.690;6.268;2022-12-07T08:37:43;3.20;99.90
59660;DHT22;45534;52.690;6.268;2022-12-07T08:40:10;3.20;99.90
59660;DHT22;45534;52.690;6.268;2022-12-07T08:42:41;3.30;99.90
59660;DHT22;45534;52.690;6.268;2022-12-07T08:45:09;3.30;99.90
59660;DHT22;45534;52.690;6.268;2022-12-07T08:47:39;3.30;99.90
59660;DHT22;45534;52.690;6.268;2022-12-07T08:50:07;3.30;99.90
59660;DHT22;45534;52.690;6.268;2022-12-07T08:52:34;3.30;99.90
59660;DHT22;45534;52.690;6.268;2022-12-07T08:55:01;3.30;99.90
59660;DHT22;45534;52.690;6.268;2022-12-07T08:57:28;3.30;99.90
59660;DHT22;45534;52.690;6.268;2022-12-07T08:59:54;3.30;99.90
59660;DHT22;45534;52.690;6.268;2022-12-07T09:02:20;3.30;99.90
59660;DHT22;45534;52.690;6.268;2022-12-07T09:04:45;3.40;99.90
59660;DHT22;45534;52.690;6.268;2022-12-07T09:07:11;3.40;99.90
59660;DHT22;45534;52.690;6.268;2022-12-07T09:09:37;3.40;99.90
59660;DHT22;45534;52.690;6.268;2022-12-07T09:12:03;3.50;99.90
59660;DHT22;45534;52.690;6.268;2022-12-07T09:14:31;3.50;99.90
59660;DHT22;45534;52.690;6.268;2022-12-07T09:17:08;3.60;99.90
59660;DHT22;45534;52.690;6.268;2022-12-07T09:19:34;3.60;99.90
59660;DHT22;45534;52.690;6.268;2022-12-07T09:22:00;3.70;99.90
59660;DHT22;45534;52.690;6.268;2022-12-07T09:24:26;3.80;99.90
59660;DHT22;45534;52.690;6.268;2022-12-07T09:26:52;3.90;99.90
59660;DHT22;45534;52.690;6.268;2022-12-07T09:29:17;4.00;99.90
59660;DHT22;45534;52.690;6.268;2022-12-07T09:31:43;4.00;99.90
59660;DHT22;45534;52.690;6.268;2022-12-07T09:34:09;4.10;99.90
59660;DHT22;45534;52.690;6.268;2022-12-07T09:36:34;4.20;99.90
59660;DHT22;45534;52.690;6.268;2022-12-07T09:39:00;4.30;99.90
59660;DHT22;45534;52.690;6.268;2022-12-07T09:41:27;4.40;99.90
59660;DHT22;45534;52.690;6.268;2022-12-07T09:44:02;4.60;99.90
59660;DHT22;45534;52.690;6.268;2022-12-07T09:46:33;4.70;99.90
59660;DHT22;45534;52.690;6.268;2022-12-07T09:49:00;4.90;99.90
59660;DHT22;45534;52.690;6.268;2022-12-07T09:51:26;4.90;99.90
59660;DHT22;45534;52.690;6.268;2022-12-07T09:53:53;5.10;99.90
59660;DHT22;45534;52.690;6.268;2022-12-07T09:56:19;5.10;99.90
59660;DHT22;45534;52.690;6.268;2022-12-07T09:58:46;5.20;99.90
59660;DHT22;45534;52.690;6.268;2022-12-07T10:01:17;5.20;99.90
59660;DHT22;45534;52.690;6.268;2022-12-07T10:03:55;5.20;99.90
59660;DHT22;45534;52.690;6.268;2022-12-07T10:06:23;5.20;99.90
59660;DHT22;45534;52.690;6.268;2022-12-07T10:08:49;5.20;99.90
59660;DHT22;45534;52.690;6.268;2022-12-07T10:11:15;5.20;99.90
59660;DHT22;45534;52.690;6.268;2022-12-07T10:13:47;5.20;99.90
59660;DHT22;45534;52.690;6.268;2022-12-07T10:16:38;5.20;99.90
59660;DHT22;45534;52.690;6.268;2022-12-07T10:19:37;5.20;99.90
59660;DHT22;45534;52.690;6.268;2022-12-07T10:24:35;5.20;99.90
59660;DHT22;45534;52.690;6.268;2022-12-07T10:27:05;5.30;99.90
59660;DHT22;45534;52.690;6.268;2022-12-07T10:29:39;5.30;99.90
59660;DHT22;45534;52.690;6.268;2022-12-07T10:32:27;5.30;99.90
59660;DHT22;45534;52.690;6.268;2022-12-07T10:35:18;5.30;99.90
59660;DHT22;45534;52.690;6.268;2022-12-07T10:37:45;5.40;99.90
59660;DHT22;45534;52.690;6.268;2022-12-07T10:40:35;5.60;99.90
59660;DHT22;45534;52.690;6.268;2022-12-07T10:43:02;5.90;99.90
59660;DHT22;45534;52.690;6.268;2022-12-07T10:45:28;6.10;99.90
59660;DHT22;45534;52.690;6.268;2022-12-07T10:58:27;6.20;99.90
59660;DHT22;45534;52.690;6.268;2022-12-07T11:15:20;5.20;99.90
59660;DHT22;45534;52.690;6.268;2022-12-07T11:18:14;5.20;99.90
59660;DHT22;45534;52.690;6.268;2022-12-07T11:23:22;5.40;99.90
59660;DHT22;45534;52.690;6.268;2022-12-07T11:28:40;5.50;99.90
59660;DHT22;45534;52.690;6.268;2022-12-07T11:31:16;5.50;99.90
59660;DHT22;45534;52.690;6.268;2022-12-07T11:33:53;5.60;99.90
59660;DHT22;45534;52.690;6.268;2022-12-07T11:36:48;5.70;99.90
59660;DHT22;45534;52.690;6.268;2022-12-07T11:41:46;5.80;99.90
59660;DHT22;45534;52.690;6.268;2022-12-07T11:46:48;5.90;99.90
59660;DHT22;45534;52.690;6.268;2022-12-07T11:51:51;6.30;99.90
59660;DHT22;45534;52.690;6.268;2022-12-07T11:54:23;6.50;99.90
59660;DHT22;45534;52.690;6.268;2022-12-07T11:56:50;6.60;99.90
59660;DHT22;45534;52.690;6.268;2022-12-07T11:59:32;6.60;99.90
59660;DHT22;45534;52.690;6.268;2022-12-07T12:02:16;6.50;99.90
59660;DHT22;45534;52.690;6.268;2022-12-07T12:07:20;6.40;99.90
59660;DHT22;45534;52.690;6.268;2022-12-07T12:10:04;6.30;99.90
59660;DHT22;45534;52.690;6.268;2022-12-07T12:20:57;7.00;99.90
59660;DHT22;45534;52.690;6.268;2022-12-07T12:26:32;7.30;99.90
59660;DHT22;45534;52.690;6.268;2022-12-07T12:29:02;7.90;99.90
59660;DHT22;45534;52.690;6.268;2022-12-07T12:33:56;8.80;99.90
59660;DHT22;45534;52.690;6.268;2022-12-07T12:42:42;9.10;99.90
59660;DHT22;45534;52.690;6.268;2022-12-07T12:47:00;8.40;99.90
59660;DHT22;45534;52.690;6.268;2022-12-07T12:51:55;7.80;99.90
59660;DHT22;45534;52.690;6.268;2022-12-07T12:54:24;7.60;99.90
59660;DHT22;45534;52.690;6.268;2022-12-07T13:02:38;7.10;99.90
59660;DHT22;45534;52.690;6.268;2022-12-07T13:07:49;7.20;99.90
59660;DHT22;45534;52.690;6.268;2022-12-07T13:15:35;7.10;99.90
59660;DHT22;45534;52.690;6.268;2022-12-07T13:28:46;7.10;99.90
59660;DHT22;45534;52.690;6.268;2022-12-07T13:31:39;7.10;99.90
59660;DHT22;45534;52.690;6.268;2022-12-07T13:34:38;7.10;99.90
59660;DHT22;45534;52.690;6.268;2022-12-07T13:37:32;7.00;99.90
59660;DHT22;45534;52.690;6.268;2022-12-07T13:39:59;6.90;99.90
59660;DHT22;45534;52.690;6.268;2022-12-07T13:42:33;6.80;99.90
59660;DHT22;45534;52.690;6.268;2022-12-07T13:45:01;6.70;99.90
59660;DHT22;45534;52.690;6.268;2022-12-07T13:47:44;6.60;99.90
59660;DHT22;45534;52.690;6.268;2022-12-07T13:50:29;6.50;99.90
59660;DHT22;45534;52.690;6.268;2022-12-07T13:52:59;6.50;99.90
59660;DHT22;45534;52.690;6.268;2022-12-07T13:55:26;6.40;99.90
59660;DHT22;45534;52.690;6.268;2022-12-07T13:57:53;6.30;99.90
59660;DHT22;45534;52.690;6.268;2022-12-07T14:00:24;6.20;99.90
59660;DHT22;45534;52.690;6.268;2022-12-07T14:02:55;6.20;99.90
59660;DHT22;45534;52.690;6.268;2022-12-07T14:05:27;6.10;99.90
59660;DHT22;45534;52.690;6.268;2022-12-07T14:08:31;6.00;99.90
59660;DHT22;45534;52.690;6.268;2022-12-07T14:13:58;5.90;99.90
59660;DHT22;45534;52.690;6.268;2022-12-07T14:16:35;5.80;99.90
59660;DHT22;45534;52.690;6.268;2022-12-07T14:19:04;5.80;99.90
59660;DHT22;45534;52.690;6.268;2022-12-07T14:21:32;5.70;99.90
59660;DHT22;45534;52.690;6.268;2022-12-07T14:24:19;5.70;99.90
59660;DHT22;45534;52.690;6.268;2022-12-07T14:26:47;5.70;99.90
59660;DHT22;45534;52.690;6.268;2022-12-07T14:29:30;5.60;99.90
59660;DHT22;45534;52.690;6.268;2022-12-07T14:31:58;5.60;99.90
59660;DHT22;45534;52.690;6.268;2022-12-07T14:34:24;5.60;99.90
59660;DHT22;45534;52.690;6.268;2022-12-07T14:36:50;5.60;99.90
59660;DHT22;45534;52.690;6.268;2022-12-07T14:39:16;5.60;99.90
59660;DHT22;45534;52.690;6.268;2022-12-07T14:41:42;5.60;99.90
59660;DHT22;45534;52.690;6.268;2022-12-07T14:44:18;5.50;99.90
59660;DHT22;45534;52.690;6.268;2022-12-07T14:46:44;5.50;99.90
59660;DHT22;45534;52.690;6.268;2022-12-07T14:49:10;5.50;99.90
59660;DHT22;45534;52.690;6.268;2022-12-07T14:51:37;5.50;99.90
59660;DHT22;45534;52.690;6.268;2022-12-07T14:54:05;5.40;99.90
59660;DHT22;45534;52.690;6.268;2022-12-07T14:56:31;5.40;99.90
59660;DHT22;45534;52.690;6.268;2022-12-07T14:58:57;5.40;99.90
59660;DHT22;45534;52.690;6.268;2022-12-07T15:01:23;5.30;99.90
59660;DHT22;45534;52.690;6.268;2022-12-07T15:03:49;5.30;99.90
59660;DHT22;45534;52.690;6.268;2022-12-07T15:06:16;5.30;99.90
59660;DHT22;45534;52.690;6.268;2022-12-07T15:08:43;5.20;99.90
59660;DHT22;45534;52.690;6.268;2022-12-07T15:11:14;5.30;99.90
59660;DHT22;45534;52.690;6.268;2022-12-07T15:13:40;5.20;99.90
59660;DHT22;45534;52.690;6.268;2022-12-07T15:16:24;5.20;99.90
59660;DHT22;45534;52.690;6.268;2022-12-07T15:18:50;5.20;99.90
59660;DHT22;45534;52.690;6.268;2022-12-07T15:21:17;5.20;99.90
59660;DHT22;45534;52.690;6.268;2022-12-07T15:23:43;5.20;99.90
59660;DHT22;45534;52.690;6.268;2022-12-07T15:26:10;5.10;99.90
59660;DHT22;45534;52.690;6.268;2022-12-07T15:28:36;5.00;99.90
59660;DHT22;45534;52.690;6.268;2022-12-07T15:31:02;5.00;99.90
59660;DHT22;45534;52.690;6.268;2022-12-07T15:33:28;4.90;99.90
59660;DHT22;45534;52.690;6.268;2022-12-07T15:35:53;4.80;99.90
59660;DHT22;45534;52.690;6.268;2022-12-07T15:38:19;4.80;99.90
59660;DHT22;45534;52.690;6.268;2022-12-07T15:40:48;4.70;99.90
59660;DHT22;45534;52.690;6.268;2022-12-07T15:43:14;4.70;99.90
59660;DHT22;45534;52.690;6.268;2022-12-07T15:45:58;4.60;99.90
59660;DHT22;45534;52.690;6.268;2022-12-07T15:48:25;4.50;99.90
59660;DHT22;45534;52.690;6.268;2022-12-07T15:50:50;4.50;99.90
59660;DHT22;45534;52.690;6.268;2022-12-07T15:53:16;4.40;99.90
59660;DHT22;45534;52.690;6.268;2022-12-07T15:55:42;4.40;99.90
59660;DHT22;45534;52.690;6.268;2022-12-07T15:58:08;4.30;99.90
59660;DHT22;45534;52.690;6.268;2022-12-07T16:00:33;4.20;99.90
59660;DHT22;45534;52.690;6.268;2022-12-07T16:02:59;4.20;99.90
59660;DHT22;45534;52.690;6.268;2022-12-07T16:05:25;4.10;99.90
59660;DHT22;45534;52.690;6.268;2022-12-07T16:07:50;4.10;99.90
59660;DHT22;45534;52.690;6.268;2022-12-07T16:10:16;4.00;99.90
59660;DHT22;45534;52.690;6.268;2022-12-07T16:12:42;4.00;99.90
59660;DHT22;45534;52.690;6.268;2022-12-07T16:15:08;4.00;99.90
59660;DHT22;45534;52.690;6.268;2022-12-07T16:17:34;4.00;99.90
59660;DHT22;45534;52.690;6.268;2022-12-07T16:20:00;4.10;99.90
59660;DHT22;45534;52.690;6.268;2022-12-07T16:22:25;4.10;99.90
59660;DHT22;45534;52.690;6.268;2022-12-07T16:24:51;4.10;99.90
59660;DHT22;45534;52.690;6.268;2022-12-07T16:27:17;4.10;99.90
59660;DHT22;45534;52.690;6.268;2022-12-07T16:29:42;4.10;99.90
59660;DHT22;45534;52.690;6.268;2022-12-07T16:32:08;4.10;99.90
59660;DHT22;45534;52.690;6.268;2022-12-07T16:34:34;4.10;99.90
59660;DHT22;45534;52.690;6.268;2022-12-07T16:36:59;4.10;99.90
59660;DHT22;45534;52.690;6.268;2022-12-07T16:39:25;4.10;99.90
59660;DHT22;45534;52.690;6.268;2022-12-07T16:41:51;4.10;99.90
59660;DHT22;45534;52.690;6.268;2022-12-07T16:44:18;4.10;99.90
59660;DHT22;45534;52.690;6.268;2022-12-07T16:46:43;4.10;99.90
59660;DHT22;45534;52.690;6.268;2022-12-07T16:49:13;4.20;99.90
59660;DHT22;45534;52.690;6.268;2022-12-07T16:51:39;4.20;99.90
59660;DHT22;45534;52.690;6.268;2022-12-07T16:54:06;4.20;99.90
59660;DHT22;45534;52.690;6.268;2022-12-07T16:56:32;4.20;99.90
59660;DHT22;45534;52.690;6.268;2022-12-07T16:58:58;4.20;99.90
59660;DHT22;45534;52.690;6.268;2022-12-07T17:01:24;4.20;99.90
59660;DHT22;45534;52.690;6.268;2022-12-07T17:03:52;4.20;99.90
59660;DHT22;45534;52.690;6.268;2022-12-07T17:06:20;4.10;99.90
59660;DHT22;45534;52.690;6.268;2022-12-07T17:08:47;4.10;99.90
59660;DHT22;45534;52.690;6.268;2022-12-07T17:11:24;4.10;99.90
59660;DHT22;45534;52.690;6.268;2022-12-07T17:13:50;4.10;99.90
59660;DHT22;45534;52.690;6.268;2022-12-07T17:16:35;4.00;99.90
59660;DHT22;45534;52.690;6.268;2022-12-07T17:19:11;4.00;99.90
59660;DHT22;45534;52.690;6.268;2022-12-07T17:21:37;4.00;99.90
59660;DHT22;45534;52.690;6.268;2022-12-07T17:24:05;4.00;99.90
59660;DHT22;45534;52.690;6.268;2022-12-07T17:26:32;4.00;99.90
59660;DHT22;45534;52.690;6.268;2022-12-07T17:28:58;4.00;99.90
59660;DHT22;45534;52.690;6.268;2022-12-07T17:31:24;3.90;99.90
59660;DHT22;45534;52.690;6.268;2022-12-07T17:33:50;3.90;99.90
59660;DHT22;45534;52.690;6.268;2022-12-07T17:36:18;3.90;99.90
59660;DHT22;45534;52.690;6.268;2022-12-07T17:38:44;3.90;99.90
59660;DHT22;45534;52.690;6.268;2022-12-07T17:41:21;3.90;99.90
59660;DHT22;45534;52.690;6.268;2022-12-07T17:44:08;3.90;99.90
59660;DHT22;45534;52.690;6.268;2022-12-07T17:46:35;3.90;99.90
59660;DHT22;45534;52.690;6.268;2022-12-07T17:49:01;3.90;99.90
59660;DHT22;45534;52.690;6.268;2022-12-07T17:51:27;3.90;99.90
59660;DHT22;45534;52.690;6.268;2022-12-07T17:54:12;3.80;99.90
59660;DHT22;45534;52.690;6.268;2022-12-07T17:56:38;3.80;99.90
59660;DHT22;45534;52.690;6.268;2022-12-07T17:59:04;3.80;99.90
59660;DHT22;45534;52.690;6.268;2022-12-07T18:01:30;3.80;99.90